ENMS  Mosjøen Airport, Kjærstad Airport

Add Bookmark

Norway

Status IATA
Operational MJF
Latitude Longitude
65° 47' 2" N 13° 12' 53" E
65.783997 13.214900
Local (DST + 2) UTC (GMT + 1)
Nov 25, 2014 02:28 Nov 25, 2014 01:28
Sunrise-Sunset Local UTC
Begin Civil Twilight 08:11 07:11
Sunrise 09:25 08:25
Sunset 02:22 13:22
End Civil Twilight 03:37 14:37

Current Weather

METAR Observed MVFR
ENMS 242150Z 12001KT 9999 -SN SCT014 BKN020 00/M00 Q1009 Mon, Nov 24, 2014 @ 21:50 UTC
(3 Hours, 38 Minutes ago)
Marginal Visual Flight Rules
Wind Visibility Clouds Conditions
120° at 1 kt (2 kph) 10 km or more
  • Scattered at 1,400' AGL
  • Broken at 2,000' AGL
  • Light Snow
Temperatures Readings Precipitation
Current Temp 0°C (32°F)
Dewpoint 0°C (32°F)
Humidity 100%
Altimeter 29.79"Hg
Sea Level Pressure 1009mb
Field Elevation 229.66'
None Recorded

Additional weather within a 92.6km radius of ENMS

Map ICAO Location
ENST 38.9km W (300°)
ENBN 58.2km S (232°)
ENRA 80.9km N (037°)
ESUT 85.2km E (087°)

24 Hour Weather History

Loading
-

24 Hour Weather Graphs

Loading
-

CheckWX.com is intended as a tool to help pilots better visualize weather data. It is not intended as a substitute for an official weather briefing obtained from a Flight Service Station. CheckWX.com does not meet the FAA requirements for an official pre-flight weather briefing. Therefore, it's important that pilots still call and obtain an official FSS pre-flight weather briefing.